Time;durP1;ratioP1;P1;durP2;ratioP2;P2;SDS_P1;SDS_P2;PMS_P1;PMS_P2;Temp;Humidity;BMP_temperature;BMP_pressure;BME280_temperature;BME280_humidity;BME280_pressure;Samples;Min_cycle;Max_cycle;Signal;HPM_P1;HPM_P2
2023/07/08 00:00:26;;;;;;;2.85;2.70;;;;;;;;;;10343225;28;20290;-75
2023/07/08 00:05:27;;;;;;;3.58;3.38;;;;;;;;;;10336920;28;20327;-72
2023/07/08 00:10:29;;;;;;;3.50;3.10;;;;;;;;;;10339100;28;20235;-76
2023/07/08 00:15:32;;;;;;;2.72;2.55;;;;;;;;;;10327595;28;20290;-75
2023/07/08 00:20:36;;;;;;;3.80;3.00;;;;;;;;;;10338564;28;20211;-77
2023/07/08 00:25:37;;;;;;;1.95;1.85;;;;;;;;;;10337664;28;20282;-74
2023/07/08 00:30:38;;;;;;;2.80;2.60;;;;;;;;;;10332717;28;20255;-75
2023/07/08 00:35:40;;;;;;;1.67;1.65;;;;;;;;;;10350881;28;20640;-75
2023/07/08 00:40:52;;;;;;;5.32;2.20;;;;;;;;;;10332361;28;20219;-75
2023/07/08 00:45:59;;;;;;;2.65;2.03;;;;;;;;;;10345061;28;20334;-77
2023/07/08 00:51:00;;;;;;;2.85;2.65;;;;;;;;;;10332383;28;20239;-75
2023/07/08 00:56:07;;;;;;;2.70;2.58;;;;;;;;;;10346710;28;20266;-76
2023/07/08 01:01:08;;;;;;;3.60;2.83;;;;;;;;;;10329767;28;20227;-76
2023/07/08 01:06:09;;;;;;;3.20;2.90;;;;;;;;;;10327952;28;20320;-76
2023/07/08 01:11:11;;;;;;;2.92;2.70;;;;;;;;;;10344122;28;20222;-75
2023/07/08 01:16:12;;;;;;;2.97;2.78;;;;;;;;;;10328000;28;20212;-75
2023/07/08 01:21:49;;;;;;;2.25;2.15;;;;;;;;;;10341242;28;20224;-76
2023/07/08 01:26:50;;;;;;;2.35;2.15;;;;;;;;;;10282629;28;20229;-77
2023/07/08 01:31:51;;;;;;;2.33;2.22;;;;;;;;;;10343807;28;20223;-75
2023/07/08 01:36:53;;;;;;;3.63;1.85;;;;;;;;;;10332418;28;20212;-76
2023/07/08 01:41:56;;;;;;;1.83;1.83;;;;;;;;;;10333453;28;20216;-75
2023/07/08 01:47:17;;;;;;;1.98;1.98;;;;;;;;;;10327611;28;20204;-75
2023/07/08 01:52:18;;;;;;;1.60;1.60;;;;;;;;;;10342749;28;20227;-75
2023/07/08 01:57:20;;;;;;;1.40;1.40;;;;;;;;;;10328416;28;20212;-76
2023/07/08 02:02:24;;;;;;;1.40;1.40;;;;;;;;;;10342686;28;20657;-76
2023/07/08 02:07:25;;;;;;;1.23;1.23;;;;;;;;;;10327214;28;20235;-75
2023/07/08 02:12:26;;;;;;;1.33;1.33;;;;;;;;;;10334148;28;20222;-76
2023/07/08 02:17:28;;;;;;;1.50;1.40;;;;;;;;;;10340416;28;20223;-75
2023/07/08 02:22:29;;;;;;;1.58;1.58;;;;;;;;;;10307983;28;20283;-76
2023/07/08 02:27:30;;;;;;;1.63;1.63;;;;;;;;;;10324777;28;20214;-76
2023/07/08 02:32:34;;;;;;;1.83;1.73;;;;;;;;;;10325867;28;20221;-75
2023/07/08 02:37:35;;;;;;;2.40;2.30;;;;;;;;;;10323722;28;20220;-75
2023/07/08 02:42:36;;;;;;;2.72;2.50;;;;;;;;;;10331662;28;20212;-75
2023/07/08 02:47:39;;;;;;;2.22;1.92;;;;;;;;;;10334013;28;20651;-75
2023/07/08 02:52:40;;;;;;;2.47;2.45;;;;;;;;;;10327206;28;20705;-76
2023/07/08 02:57:41;;;;;;;2.08;1.77;;;;;;;;;;10330640;28;20207;-75
2023/07/08 03:02:42;;;;;;;1.55;1.55;;;;;;;;;;10342389;28;20215;-74
2023/07/08 03:07:43;;;;;;;1.80;1.73;;;;;;;;;;10339364;28;20231;-74
2023/07/08 03:12:44;;;;;;;2.22;2.13;;;;;;;;;;10331450;28;20232;-76
2023/07/08 03:17:45;;;;;;;2.40;2.30;;;;;;;;;;10320621;28;20749;-75
2023/07/08 03:22:47;;;;;;;2.70;2.13;;;;;;;;;;10340848;28;20234;-75
2023/07/08 03:27:48;;;;;;;1.60;1.60;;;;;;;;;;10329535;28;20212;-76
2023/07/08 03:32:50;;;;;;;2.40;1.75;;;;;;;;;;10327638;28;20219;-75
2023/07/08 03:37:51;;;;;;;1.88;1.77;;;;;;;;;;10329012;28;20209;-75
2023/07/08 03:42:52;;;;;;;1.92;1.92;;;;;;;;;;10340653;28;20227;-76
2023/07/08 03:47:53;;;;;;;4.00;2.00;;;;;;;;;;10330745;28;20220;-77
2023/07/08 03:52:55;;;;;;;2.63;1.90;;;;;;;;;;10331851;28;20973;-76
2023/07/08 03:57:58;;;;;;;2.60;2.40;;;;;;;;;;10332308;28;20650;-76
2023/07/08 04:03:02;;;;;;;3.70;3.45;;;;;;;;;;10329581;28;20244;-76
2023/07/08 04:08:03;;;;;;;8.68;4.65;;;;;;;;;;10320878;28;20224;-76
2023/07/08 04:13:04;;;;;;;3.25;3.03;;;;;;;;;;10347496;28;20282;-75
2023/07/08 04:18:05;;;;;;;3.08;2.97;;;;;;;;;;10344812;28;20216;-76
2023/07/08 04:23:06;;;;;;;3.30;3.10;;;;;;;;;;10346889;28;20706;-75
2023/07/08 04:28:07;;;;;;;2.35;2.35;;;;;;;;;;10349400;28;20208;-74
2023/07/08 04:33:12;;;;;;;3.00;2.80;;;;;;;;;;10338671;28;20217;-76
2023/07/08 04:38:23;;;;;;;2.65;2.25;;;;;;;;;;10332792;28;20645;-75
2023/07/08 04:43:28;;;;;;;2.67;2.58;;;;;;;;;;10337563;28;20227;-75
2023/07/08 04:48:29;;;;;;;5.05;2.97;;;;;;;;;;10335375;28;20212;-75
2023/07/08 04:53:30;;;;;;;2.97;2.85;;;;;;;;;;10326023;28;20303;-76
2023/07/08 04:58:31;;;;;;;3.65;3.35;;;;;;;;;;10329828;28;20216;-75
2023/07/08 05:03:32;;;;;;;3.20;3.00;;;;;;;;;;10343992;28;20216;-75
2023/07/08 05:08:33;;;;;;;3.20;3.05;;;;;;;;;;10331237;28;20224;-76
2023/07/08 05:13:35;;;;;;;2.65;2.55;;;;;;;;;;10326954;28;20228;-76
2023/07/08 05:18:36;;;;;;;3.30;3.00;;;;;;;;;;10336836;28;20227;-77
2023/07/08 05:23:37;;;;;;;4.10;3.85;;;;;;;;;;10342721;28;20945;-76
2023/07/08 05:28:38;;;;;;;2.78;2.63;;;;;;;;;;10331061;28;20255;-76
2023/07/08 05:33:39;;;;;;;3.03;2.92;;;;;;;;;;10335475;28;20263;-76
2023/07/08 05:38:40;;;;;;;2.58;2.47;;;;;;;;;;10346623;28;20246;-75
2023/07/08 05:43:41;;;;;;;3.13;3.03;;;;;;;;;;10347842;28;20227;-76
2023/07/08 05:48:42;;;;;;;3.13;3.03;;;;;;;;;;10331432;28;20213;-75
2023/07/08 05:53:43;;;;;;;3.35;3.25;;;;;;;;;;10344186;28;20693;-76
2023/07/08 05:58:44;;;;;;;3.28;3.00;;;;;;;;;;10344413;28;20304;-75
2023/07/08 06:03:45;;;;;;;4.03;3.78;;;;;;;;;;10332353;28;20224;-76
2023/07/08 06:08:46;;;;;;;3.30;3.20;;;;;;;;;;10341767;28;20244;-75
2023/07/08 06:13:47;;;;;;;3.30;3.10;;;;;;;;;;10343774;28;20252;-75
2023/07/08 06:18:48;;;;;;;3.28;3.17;;;;;;;;;;10335255;28;20228;-75
2023/07/08 06:23:49;;;;;;;3.63;3.33;;;;;;;;;;10340313;28;20256;-76
2023/07/08 06:28:50;;;;;;;3.50;3.17;;;;;;;;;;10332543;28;20236;-76
2023/07/08 06:33:51;;;;;;;3.88;3.55;;;;;;;;;;10343875;28;20358;-75
2023/07/08 06:38:52;;;;;;;4.65;4.20;;;;;;;;;;10345458;28;20312;-76
2023/07/08 06:43:53;;;;;;;3.22;3.03;;;;;;;;;;10332765;28;20231;-76
2023/07/08 06:48:56;;;;;;;3.22;3.13;;;;;;;;;;10330588;28;20212;-77
2023/07/08 06:53:57;;;;;;;3.20;3.00;;;;;;;;;;10333076;28;20216;-75
2023/07/08 06:58:58;;;;;;;3.03;2.92;;;;;;;;;;10340971;28;20702;-76
2023/07/08 07:03:59;;;;;;;3.80;3.60;;;;;;;;;;10328123;28;20215;-76
2023/07/08 07:09:00;;;;;;;3.10;2.63;;;;;;;;;;10329696;28;20613;-75
2023/07/08 07:14:02;;;;;;;2.90;2.80;;;;;;;;;;10331322;28;20226;-76
2023/07/08 07:19:03;;;;;;;3.35;3.15;;;;;;;;;;10341920;28;20322;-75
2023/07/08 07:24:04;;;;;;;2.78;2.67;;;;;;;;;;10341943;28;20301;-76
2023/07/08 07:29:05;;;;;;;3.83;2.70;;;;;;;;;;10343122;28;20222;-74
2023/07/08 07:34:06;;;;;;;3.00;2.90;;;;;;;;;;10332922;28;20235;-76
2023/07/08 07:39:08;;;;;;;2.22;2.13;;;;;;;;;;10336495;28;20236;-76
2023/07/08 07:44:09;;;;;;;2.50;2.40;;;;;;;;;;10323437;28;20220;-75
2023/07/08 07:49:10;;;;;;;2.10;2.00;;;;;;;;;;10336831;28;20212;-76
2023/07/08 07:54:11;;;;;;;2.72;2.63;;;;;;;;;;10350402;28;20706;-75
2023/07/08 07:59:12;;;;;;;2.30;2.20;;;;;;;;;;10334886;28;20216;-77
2023/07/08 08:04:13;;;;;;;2.13;2.08;;;;;;;;;;10348578;28;20223;-78
2023/07/08 08:09:14;;;;;;;2.10;2.10;;;;;;;;;;10335483;28;21253;-75
2023/07/08 08:14:15;;;;;;;2.30;2.20;;;;;;;;;;10336470;28;20208;-78
2023/07/08 08:19:16;;;;;;;1.75;1.75;;;;;;;;;;10348344;28;20211;-75
2023/07/08 08:24:18;;;;;;;5.53;2.42;;;;;;;;;;10335659;28;20247;-75
2023/07/08 08:29:19;;;;;;;3.28;2.30;;;;;;;;;;10332214;28;20276;-75
2023/07/08 08:34:20;;;;;;;2.42;2.22;;;;;;;;;;10344567;28;20299;-76
2023/07/08 08:39:21;;;;;;;4.25;1.92;;;;;;;;;;10337656;28;20669;-77
2023/07/08 08:44:25;;;;;;;1.90;1.88;;;;;;;;;;10333273;28;20220;-77
2023/07/08 08:49:37;;;;;;;2.45;2.35;;;;;;;;;;10346679;28;20309;-76
2023/07/08 08:54:39;;;;;;;2.28;2.00;;;;;;;;;;10336724;28;20253;-76
2023/07/08 08:59:52;;;;;;;1.88;1.88;;;;;;;;;;10333069;28;20703;-77
2023/07/08 09:04:53;;;;;;;6.22;2.10;;;;;;;;;;10346435;28;21232;-78
2023/07/08 09:10:01;;;;;;;2.10;1.90;;;;;;;;;;10337453;28;20235;-75
2023/07/08 09:15:12;;;;;;;1.92;1.88;;;;;;;;;;10346232;28;20251;-78
2023/07/08 09:20:20;;;;;;;1.77;1.67;;;;;;;;;;10315636;28;20223;-77
2023/07/08 09:25:20;;;;;;;1.73;1.63;;;;;;;;;;10336806;28;20212;-76
2023/07/08 09:30:23;;;;;;;2.83;1.92;;;;;;;;;;10334904;28;20229;-76
2023/07/08 09:35:28;;;;;;;1.80;1.80;;;;;;;;;;10347551;28;20188;-78
2023/07/08 09:40:30;;;;;;;3.03;2.00;;;;;;;;;;10334532;28;20231;-77
2023/07/08 09:45:40;;;;;;;1.60;1.60;;;;;;;;;;10350569;28;20292;-76
2023/07/08 09:50:43;;;;;;;9.07;1.65;;;;;;;;;;10329603;28;20216;-76
2023/07/08 09:55:45;;;;;;;1.75;1.75;;;;;;;;;;10332754;28;20220;-77
2023/07/08 10:00:51;;;;;;;3.00;1.70;;;;;;;;;;10335316;28;20334;-76
2023/07/08 10:05:56;;;;;;;1.73;1.63;;;;;;;;;;10347709;28;20518;-77
2023/07/08 10:11:16;;;;;;;1.65;1.65;;;;;;;;;;10348246;28;20270;-78
2023/07/08 10:16:21;;;;;;;1.65;1.55;;;;;;;;;;10340548;28;20577;-76
2023/07/08 10:21:31;;;;;;;1.30;1.30;;;;;;;;;;10338530;28;20232;-77
2023/07/08 10:26:34;;;;;;;1.35;1.35;;;;;;;;;;10329309;28;20535;-78
2023/07/08 10:31:53;;;;;;;1.70;1.70;;;;;;;;;;10322449;28;20220;-77
2023/07/08 10:37:17;;;;;;;2.20;2.10;;;;;;;;;;10337194;28;20749;-77
2023/07/08 10:42:37;;;;;;;1.35;1.35;;;;;;;;;;10316947;28;20238;-77
2023/07/08 10:47:43;;;;;;;1.70;1.65;;;;;;;;;;10322255;28;20208;-78
2023/07/08 10:52:57;;;;;;;1.40;1.40;;;;;;;;;;10338543;28;20674;-75
2023/07/08 10:58:04;;;;;;;1.73;1.63;;;;;;;;;;10336082;28;20220;-76
2023/07/08 11:03:22;;;;;;;1.30;1.30;;;;;;;;;;10337324;28;20220;-76
2023/07/08 11:08:35;;;;;;;1.33;1.33;;;;;;;;;;10323557;28;20224;-76
2023/07/08 11:13:39;;;;;;;2.50;1.30;;;;;;;;;;10327972;28;20687;-76
2023/07/08 11:18:49;;;;;;;1.30;1.30;;;;;;;;;;10329205;28;20323;-78
2023/07/08 11:23:52;;;;;;;2.05;1.20;;;;;;;;;;10336878;28;20259;-76
2023/07/08 11:28:54;;;;;;;1.40;1.30;;;;;;;;;;10339223;28;20394;-75
2023/07/08 11:33:56;;;;;;;1.50;1.42;;;;;;;;;;10308192;28;20579;-79
2023/07/08 11:38:58;;;;;;;1.30;1.30;;;;;;;;;;10323742;28;20248;-78
2023/07/08 11:44:00;;;;;;;1.70;1.60;;;;;;;;;;10327296;28;20269;-76
2023/07/08 11:49:02;;;;;;;1.10;1.10;;;;;;;;;;10313251;28;20223;-75
2023/07/08 11:54:14;;;;;;;1.23;1.23;;;;;;;;;;10320709;28;20275;-76
2023/07/08 11:59:19;;;;;;;1.42;1.40;;;;;;;;;;10319147;28;20252;-77
2023/07/08 12:04:24;;;;;;;1.20;1.20;;;;;;;;;;10332880;28;20224;-76
2023/07/08 12:09:25;;;;;;;1.23;1.23;;;;;;;;;;10313200;28;20224;-75
2023/07/08 12:14:27;;;;;;;0.95;0.95;;;;;;;;;;10318510;28;20380;-78
2023/07/08 12:19:31;;;;;;;1.42;1.42;;;;;;;;;;10340652;28;20216;-77
2023/07/08 12:24:32;;;;;;;1.90;1.80;;;;;;;;;;10313802;28;20278;-77
2023/07/08 12:29:33;;;;;;;1.92;1.83;;;;;;;;;;10343664;28;20254;-77
2023/07/08 12:34:34;;;;;;;1.90;1.90;;;;;;;;;;10334371;28;20270;-78
2023/07/08 12:39:35;;;;;;;2.25;1.63;;;;;;;;;;10333233;28;20334;-77
2023/07/08 12:44:42;;;;;;;1.77;1.77;;;;;;;;;;10322373;28;20216;-76
2023/07/08 12:49:43;;;;;;;1.80;1.70;;;;;;;;;;10334661;28;20212;-77
2023/07/08 12:54:44;;;;;;;2.92;1.75;;;;;;;;;;10320988;28;20220;-76
2023/07/08 12:59:45;;;;;;;2.38;2.28;;;;;;;;;;10341507;28;20204;-77
2023/07/08 13:04:47;;;;;;;1.98;1.98;;;;;;;;;;10340297;28;20321;-77
2023/07/08 13:09:49;;;;;;;1.95;1.95;;;;;;;;;;10329551;28;20223;-79
2023/07/08 13:14:51;;;;;;;2.03;2.03;;;;;;;;;;10329299;28;20302;-78
2023/07/08 13:19:52;;;;;;;2.60;1.90;;;;;;;;;;10335740;28;20223;-77
2023/07/08 13:25:03;;;;;;;1.90;1.80;;;;;;;;;;10332138;28;20220;-78
2023/07/08 13:30:24;;;;;;;1.58;1.48;;;;;;;;;;10332434;28;20315;-78
2023/07/08 13:35:35;;;;;;;1.40;1.40;;;;;;;;;;10312563;28;22175;-76
2023/07/08 13:40:37;;;;;;;1.10;1.10;;;;;;;;;;10334958;28;20220;-76
2023/07/08 13:45:38;;;;;;;1.40;1.40;;;;;;;;;;10319731;28;20223;-76
2023/07/08 13:50:59;;;;;;;1.30;1.30;;;;;;;;;;10320858;28;20310;-76
2023/07/08 13:56:02;;;;;;;1.70;1.60;;;;;;;;;;10335455;28;20281;-78
2023/07/08 14:01:06;;;;;;;1.33;1.25;;;;;;;;;;10316546;28;21062;-79
2023/07/08 14:06:13;;;;;;;1.33;1.33;;;;;;;;;;10319812;28;20482;-78
2023/07/08 14:11:14;;;;;;;1.00;1.00;;;;;;;;;;10323068;28;20341;-76
2023/07/08 14:16:24;;;;;;;1.40;1.40;;;;;;;;;;10337259;28;20247;-76
2023/07/08 14:21:25;;;;;;;2.88;2.70;;;;;;;;;;10336336;28;20219;-78
2023/07/08 14:26:26;;;;;;;10.85;10.00;;;;;;;;;;10318850;28;20223;-77
2023/07/08 14:31:27;;;;;;;4.53;4.22;;;;;;;;;;10332817;28;20401;-77
2023/07/08 14:36:28;;;;;;;1.20;1.20;;;;;;;;;;10337383;28;20242;-76
2023/07/08 14:41:29;;;;;;;1.55;1.25;;;;;;;;;;10319171;28;20244;-77
2023/07/08 14:46:30;;;;;;;1.38;1.20;;;;;;;;;;10332310;28;20311;-77
2023/07/08 14:51:31;;;;;;;1.48;1.48;;;;;;;;;;10306866;28;21123;-79
2023/07/08 14:56:32;;;;;;;1.27;1.27;;;;;;;;;;10331843;28;20306;-77
2023/07/08 15:01:33;;;;;;;1.33;1.30;;;;;;;;;;10336228;28;20226;-77
2023/07/08 15:06:34;;;;;;;1.25;1.13;;;;;;;;;;10318462;28;20235;-79
2023/07/08 15:11:37;;;;;;;1.00;1.00;;;;;;;;;;10305162;28;20223;-76
2023/07/08 15:16:38;;;;;;;1.05;1.05;;;;;;;;;;10320605;28;20211;-76
2023/07/08 15:21:40;;;;;;;1.15;1.15;;;;;;;;;;10283461;28;20216;-76
2023/07/08 15:26:46;;;;;;;3.90;1.25;;;;;;;;;;10307817;28;20224;-76
2023/07/08 15:31:47;;;;;;;1.35;1.30;;;;;;;;;;10329576;28;20309;-76
2023/07/08 15:36:48;;;;;;;2.03;1.80;;;;;;;;;;10330446;28;20211;-77
2023/07/08 15:41:49;;;;;;;2.97;1.02;;;;;;;;;;10316752;28;20219;-77
2023/07/08 15:46:51;;;;;;;1.35;1.35;;;;;;;;;;10317107;28;20248;-78
2023/07/08 15:51:52;;;;;;;1.20;1.20;;;;;;;;;;10327117;28;20814;-78
2023/07/08 15:56:54;;;;;;;2.15;1.52;;;;;;;;;;10296812;28;20218;-78
2023/07/08 16:01:55;;;;;;;1.30;1.20;;;;;;;;;;10312146;28;20911;-77
2023/07/08 16:06:56;;;;;;;1.52;1.42;;;;;;;;;;10312280;28;20219;-78
2023/07/08 16:11:57;;;;;;;1.45;1.17;;;;;;;;;;10341063;28;20228;-77
2023/07/08 16:16:58;;;;;;;1.10;1.10;;;;;;;;;;10306216;28;20302;-77
2023/07/08 16:22:00;;;;;;;1.65;1.00;;;;;;;;;;10337329;28;20343;-77
2023/07/08 16:27:01;;;;;;;1.25;1.25;;;;;;;;;;10334798;28;20267;-77
2023/07/08 16:32:02;;;;;;;1.58;1.48;;;;;;;;;;10335465;28;20220;-79
2023/07/08 16:37:03;;;;;;;1.20;1.20;;;;;;;;;;10310896;28;20200;-78
2023/07/08 16:42:05;;;;;;;1.50;1.50;;;;;;;;;;10334674;28;20867;-79
2023/07/08 16:47:07;;;;;;;1.77;1.77;;;;;;;;;;10341714;28;20807;-79
2023/07/08 16:52:13;;;;;;;1.33;1.33;;;;;;;;;;10303030;28;20245;-79
2023/07/08 16:57:15;;;;;;;1.27;1.27;;;;;;;;;;10333956;28;20212;-80
2023/07/08 17:02:16;;;;;;;2.03;2.03;;;;;;;;;;10335481;28;20222;-77
2023/07/08 17:07:17;;;;;;;1.30;1.30;;;;;;;;;;10317694;28;20238;-78
2023/07/08 17:12:18;;;;;;;1.67;1.60;;;;;;;;;;10313979;28;20338;-78
2023/07/08 17:17:20;;;;;;;1.55;0.95;;;;;;;;;;10305269;28;20298;-78
2023/07/08 17:22:21;;;;;;;1.38;1.38;;;;;;;;;;10294404;28;20377;-79
2023/07/08 17:27:22;;;;;;;1.58;1.58;;;;;;;;;;10310203;28;20223;-75
2023/07/08 17:32:23;;;;;;;3.67;3.50;;;;;;;;;;10307531;28;20300;-77
2023/07/08 17:37:24;;;;;;;2.38;2.20;;;;;;;;;;10308230;28;20220;-75
2023/07/08 17:42:25;;;;;;;1.25;1.15;;;;;;;;;;10326044;28;20217;-76
2023/07/08 17:47:27;;;;;;;1.20;1.20;;;;;;;;;;10324673;28;20215;-77
2023/07/08 17:52:28;;;;;;;4.28;1.27;;;;;;;;;;10322934;28;20228;-76
2023/07/08 17:57:29;;;;;;;1.40;1.40;;;;;;;;;;10314034;28;20231;-76
2023/07/08 18:02:30;;;;;;;1.23;1.23;;;;;;;;;;10288935;28;20216;-77
2023/07/08 18:07:31;;;;;;;1.10;1.10;;;;;;;;;;10304500;28;20722;-76
2023/07/08 18:12:35;;;;;;;1.58;1.58;;;;;;;;;;10289747;28;20218;-77
2023/07/08 18:17:36;;;;;;;3.90;1.50;;;;;;;;;;10295359;28;20208;-76
2023/07/08 18:22:39;;;;;;;1.38;1.35;;;;;;;;;;10313995;28;20206;-77
2023/07/08 18:27:40;;;;;;;1.80;1.80;;;;;;;;;;10326178;28;20211;-74
2023/07/08 18:32:42;;;;;;;1.50;1.50;;;;;;;;;;10318517;28;20212;-76
2023/07/08 18:37:44;;;;;;;1.73;1.52;;;;;;;;;;10291056;28;20204;-76
2023/07/08 18:43:06;;;;;;;1.98;1.98;;;;;;;;;;10322548;28;21050;-75
2023/07/08 18:48:10;;;;;;;1.95;1.55;;;;;;;;;;10327442;28;20197;-78
2023/07/08 18:53:14;;;;;;;2.22;2.08;;;;;;;;;;10299549;28;20287;-78
2023/07/08 18:58:18;;;;;;;1.75;1.75;;;;;;;;;;10289397;28;20290;-75
2023/07/08 19:03:27;;;;;;;1.98;1.98;;;;;;;;;;10303728;28;20216;-74
2023/07/08 19:08:28;;;;;;;3.90;1.67;;;;;;;;;;10298441;28;20306;-73
2023/07/08 19:13:30;;;;;;;1.42;1.42;;;;;;;;;;10310992;28;20218;-75
2023/07/08 19:18:31;;;;;;;1.40;1.40;;;;;;;;;;10316042;28;20227;-77
2023/07/08 19:23:32;;;;;;;1.60;1.60;;;;;;;;;;10300887;28;20243;-75
2023/07/08 19:28:33;;;;;;;2.78;1.42;;;;;;;;;;10314581;28;20212;-74
2023/07/08 19:33:34;;;;;;;1.60;1.60;;;;;;;;;;10283304;28;20844;-77
2023/07/08 19:38:35;;;;;;;1.92;1.92;;;;;;;;;;10300366;28;20585;-76
2023/07/08 19:43:36;;;;;;;1.50;1.50;;;;;;;;;;10302251;28;20722;-75
2023/07/08 19:48:38;;;;;;;2.13;2.03;;;;;;;;;;10306274;28;20215;-75
2023/07/08 19:53:39;;;;;;;2.28;2.28;;;;;;;;;;10301352;28;20209;-77
2023/07/08 19:58:40;;;;;;;1.88;1.77;;;;;;;;;;10296386;28;20212;-75
2023/07/08 20:03:41;;;;;;;1.80;1.75;;;;;;;;;;10302561;28;20222;-75
2023/07/08 20:08:42;;;;;;;1.73;1.73;;;;;;;;;;10318122;28;20219;-75
2023/07/08 20:13:44;;;;;;;2.53;2.42;;;;;;;;;;10319279;28;20215;-74
2023/07/08 20:18:45;;;;;;;2.22;2.10;;;;;;;;;;10304293;28;20212;-76
2023/07/08 20:23:46;;;;;;;1.73;1.73;;;;;;;;;;10306409;28;20219;-74
2023/07/08 20:28:48;;;;;;;2.38;2.10;;;;;;;;;;10303933;28;20566;-73
2023/07/08 20:33:49;;;;;;;1.90;1.90;;;;;;;;;;10304551;28;20379;-74
2023/07/08 20:38:50;;;;;;;5.38;2.10;;;;;;;;;;10315657;28;20239;-74
2023/07/08 20:43:51;;;;;;;1.88;1.77;;;;;;;;;;10319500;28;20224;-74
2023/07/08 20:48:53;;;;;;;2.25;2.05;;;;;;;;;;10301986;28;20212;-74
2023/07/08 20:53:55;;;;;;;1.98;1.98;;;;;;;;;;10318323;28;20620;-73
2023/07/08 20:58:56;;;;;;;2.17;2.08;;;;;;;;;;10305828;28;20222;-74
2023/07/08 21:03:58;;;;;;;2.30;2.20;;;;;;;;;;10315185;28;20208;-74
2023/07/08 21:08:59;;;;;;;2.20;2.00;;;;;;;;;;10304086;28;20443;-73
2023/07/08 21:14:00;;;;;;;2.28;2.28;;;;;;;;;;10291534;28;20208;-74
2023/07/08 21:19:01;;;;;;;2.35;2.33;;;;;;;;;;10313049;28;20212;-72
2023/07/08 21:24:03;;;;;;;2.60;2.50;;;;;;;;;;10302771;28;20227;-73
2023/07/08 21:29:04;;;;;;;2.72;2.63;;;;;;;;;;10321560;28;20238;-73
2023/07/08 21:34:05;;;;;;;2.63;2.40;;;;;;;;;;10315992;28;20230;-73
2023/07/08 21:39:17;;;;;;;2.08;2.05;;;;;;;;;;10311219;28;20212;-73
2023/07/08 21:44:18;;;;;;;3.42;2.20;;;;;;;;;;10300146;28;20693;-74
2023/07/08 21:49:19;;;;;;;2.22;2.13;;;;;;;;;;10303599;28;20391;-75
2023/07/08 21:54:20;;;;;;;2.03;2.03;;;;;;;;;;10305700;28;20232;-73
2023/07/08 21:59:21;;;;;;;2.72;1.90;;;;;;;;;;10301102;28;20274;-74
2023/07/08 22:04:23;;;;;;;2.25;2.15;;;;;;;;;;10286963;28;20258;-73
2023/07/08 22:09:24;;;;;;;2.53;2.42;;;;;;;;;;10309107;28;20606;-73
2023/07/08 22:14:26;;;;;;;1.80;1.80;;;;;;;;;;10306068;28;20493;-73
2023/07/08 22:19:27;;;;;;;2.22;2.10;;;;;;;;;;10300707;28;20584;-73
2023/07/08 22:24:28;;;;;;;1.92;1.85;;;;;;;;;;10311073;28;20931;-73
2023/07/08 22:29:29;;;;;;;1.80;1.80;;;;;;;;;;10319785;28;20204;-73
2023/07/08 22:34:31;;;;;;;2.03;2.03;;;;;;;;;;10309851;28;20215;-73
2023/07/08 22:39:32;;;;;;;2.83;2.47;;;;;;;;;;10313362;28;20625;-73
2023/07/08 22:44:33;;;;;;;2.17;2.08;;;;;;;;;;10312717;28;20327;-74
2023/07/08 22:49:34;;;;;;;3.15;2.33;;;;;;;;;;10291527;28;20220;-73
2023/07/08 22:54:35;;;;;;;2.60;2.47;;;;;;;;;;10295957;28;20939;-73
2023/07/08 22:59:36;;;;;;;1.65;1.65;;;;;;;;;;10287032;28;20761;-73
2023/07/08 23:04:37;;;;;;;2.67;2.53;;;;;;;;;;10301067;28;20293;-73
2023/07/08 23:09:38;;;;;;;2.50;2.40;;;;;;;;;;10309373;28;20223;-73
2023/07/08 23:14:40;;;;;;;2.20;2.00;;;;;;;;;;10300535;28;20654;-73
2023/07/08 23:19:41;;;;;;;2.83;2.08;;;;;;;;;;10323733;28;20312;-74
2023/07/08 23:24:42;;;;;;;2.00;2.00;;;;;;;;;;10300436;28;20230;-74
2023/07/08 23:29:43;;;;;;;2.05;1.95;;;;;;;;;;10298349;28;20211;-75
2023/07/08 23:34:44;;;;;;;2.17;2.08;;;;;;;;;;10300559;28;20326;-73
2023/07/08 23:39:45;;;;;;;1.45;1.40;;;;;;;;;;10310574;28;20228;-74
2023/07/08 23:44:46;;;;;;;1.92;1.92;;;;;;;;;;10315434;28;20316;-76
2023/07/08 23:49:47;;;;;;;2.03;2.03;;;;;;;;;;10298483;28;20270;-74
2023/07/08 23:54:48;;;;;;;2.05;2.00;;;;;;;;;;10309378;28;20235;-74
2023/07/08 23:59:54;;;;;;;2.28;2.17;;;;;;;;;;10322305;28;20845;-74
